»·PEaware :: VRD1964 KSFO-KSAN

VRD1964 :: KSFO-KSAN

FLIGHT INFORMATION

Flight Status: Arrived
Operator:
Virgin America
More flights by this operator :: More flights under this callsign
Pilot: Noah C. (7030)
Aircraft: AIRBUS A320
(A320)
More flights by this aircraft type
Origin: KSFO San Francisco Intl
United States
Destination: KSAN San Diego Intl-Lindbergh
United States
More flights between these airports :: More routes between these airports
Route: + / BSR250016 LAX COMIX1
File this flight plan on PilotEdge
Remarks:
Altitude:
(Current/Filed)
37,000ft
Speed:
(Current/Filed)
450kts
Departed: 23-Dec-17 10:37 PM
Arrived: 23-Dec-17 11:47 PM
Distance/Time
Traveled:
388nm/1:10
Distance/Time
To Go:
Arrived

Flight Plot

Page will automatically refresh every two minutes.

Flight plan parsing failed; only flown route is shown


Map Options




Map Legend


Flown Route
Filed Route
Departure Airport
Arrival Airport
Navaid (VOR, NDB)
Fix

Horizontal Profiles

Position Reports

Time Latitude Longitude Heading Altitude Ground
Speed
23-Dec-17 22:16 37.616560 -122.381259 14 27ft 0kts
23-Dec-17 22:17 37.616560 -122.381259 14 27ft 0kts
23-Dec-17 22:18 37.616560 -122.381259 14 27ft 0kts
23-Dec-17 22:19 37.616560 -122.381259 14 27ft 0kts
23-Dec-17 22:20 37.616560 -122.381259 14 27ft 0kts
23-Dec-17 22:21 37.616560 -122.381259 14 27ft 0kts
23-Dec-17 22:22 37.616560 -122.381259 14 27ft 0kts
23-Dec-17 22:23 37.616560 -122.381259 14 27ft 0kts
23-Dec-17 22:24 37.616560 -122.381259 14 27ft 0kts
23-Dec-17 22:25 37.616560 -122.381259 14 27ft 0kts
23-Dec-17 22:26 37.616560 -122.381259 14 27ft 0kts
23-Dec-17 22:27 37.616560 -122.381259 14 27ft 0kts
23-Dec-17 22:28 37.616560 -122.381259 14 27ft 0kts
23-Dec-17 22:29 37.616560 -122.381259 14 27ft 0kts
23-Dec-17 22:30 37.616560 -122.381259 14 27ft 0kts
23-Dec-17 22:31 37.616253 -122.381364 14 27ft 2kts
23-Dec-17 22:32 37.616043 -122.381435 14 27ft 0kts
23-Dec-17 22:33 37.616043 -122.381435 14 27ft 0kts
23-Dec-17 22:34 37.616044 -122.381435 14 27ft 0kts
23-Dec-17 22:35 37.616044 -122.381435 14 27ft 0kts
23-Dec-17 22:36 37.616044 -122.381435 14 27ft 0kts
23-Dec-17 22:37 37.616053 -122.381430 19 27ft 0kts
23-Dec-17 22:38 37.614868 -122.380815 209 27ft 10kts
23-Dec-17 22:39 37.612682 -122.381314 206 27ft 10kts
23-Dec-17 22:40 37.609316 -122.383522 191 27ft 7kts
23-Dec-17 22:41 37.608870 -122.383389 121 27ft 0kts
23-Dec-17 22:42 37.608743 -122.383126 121 27ft 5kts
23-Dec-17 22:43 37.614990 -122.378277 27 27ft 124kts
23-Dec-17 22:44 37.657743 -122.365854 2 2532ft 180kts
23-Dec-17 22:45 37.714886 -122.375207 317 4576ft 252kts
23-Dec-17 22:46 37.709636 -122.457553 216 7815ft 279kts
23-Dec-17 22:47 37.644311 -122.516135 217 10999ft 303kts
23-Dec-17 22:48 37.570002 -122.585960 219 12936ft 355kts
23-Dec-17 22:49 37.489611 -122.660616 219 15858ft 363kts
23-Dec-17 22:50 37.394334 -122.710551 193 18309ft 387kts
23-Dec-17 22:51 37.284999 -122.677809 169 20333ft 416kts
23-Dec-17 22:52 37.170859 -122.640864 171 22196ft 430kts
23-Dec-17 22:53 37.053413 -122.601804 171 23842ft 443kts
23-Dec-17 22:54 36.932315 -122.563862 174 25336ft 453kts
23-Dec-17 22:55 36.807024 -122.531535 174 26754ft 464kts
23-Dec-17 22:56 36.679319 -122.498314 174 28072ft 474kts
23-Dec-17 22:57 36.548363 -122.464509 174 29256ft 484kts
23-Dec-17 22:58 36.417817 -122.416552 150 30322ft 510kts
23-Dec-17 22:59 36.321815 -122.285068 132 31769ft 517kts
23-Dec-17 23:00 36.228196 -122.149722 133 33108ft 515kts
23-Dec-17 23:01 36.135577 -122.014845 133 34293ft 514kts
23-Dec-17 23:02 36.043674 -121.880057 129 35347ft 513kts
23-Dec-17 23:03 35.960024 -121.736395 128 36234ft 513kts
23-Dec-17 23:04 35.876564 -121.594060 127 37017ft 511kts
23-Dec-17 23:05 35.792518 -121.451450 127 37292ft 512kts
23-Dec-17 23:06 35.709054 -121.310001 127 37287ft 511kts
23-Dec-17 23:07 35.625284 -121.168919 127 37289ft 511kts
23-Dec-17 23:08 35.541055 -121.027605 127 37281ft 511kts
23-Dec-17 23:09 35.456890 -120.886951 127 37280ft 512kts
23-Dec-17 23:10 35.372664 -120.746576 127 37278ft 512kts
23-Dec-17 23:11 35.287863 -120.605984 127 37278ft 512kts
23-Dec-17 23:12 35.203204 -120.466237 127 37311ft 511kts
23-Dec-17 23:13 35.118176 -120.326363 127 37313ft 511kts
23-Dec-17 23:14 35.033347 -120.187392 127 37311ft 510kts
23-Dec-17 23:15 34.948984 -120.049535 127 37306ft 505kts
23-Dec-17 23:16 34.864786 -119.912786 127 37267ft 502kts
23-Dec-17 23:17 34.780885 -119.776968 127 37221ft 503kts
23-Dec-17 23:18 34.696760 -119.640915 127 37297ft 504kts
23-Dec-17 23:19 34.611794 -119.504743 127 37297ft 504kts
23-Dec-17 23:20 34.527482 -119.369653 127 37281ft 502kts
23-Dec-17 23:21 34.442789 -119.234647 127 37210ft 502kts
23-Dec-17 23:22 34.358275 -119.100153 127 37215ft 503kts
23-Dec-17 23:23 34.273194 -118.965641 127 37291ft 504kts
23-Dec-17 23:24 34.187627 -118.830678 127 37287ft 505kts
23-Dec-17 23:25 34.102280 -118.696576 127 37287ft 504kts
23-Dec-17 23:26 34.016567 -118.562578 127 37257ft 503kts
23-Dec-17 23:27 33.930990 -118.429776 131 37284ft 501kts
23-Dec-17 23:28 33.836689 -118.307473 133 36425ft 496kts
23-Dec-17 23:29 33.740546 -118.182798 133 32608ft 511kts
23-Dec-17 23:30 33.644653 -118.056397 133 29324ft 514kts
23-Dec-17 23:31 33.548590 -117.931462 136 26157ft 501kts
23-Dec-17 23:32 33.450843 -117.817763 138 23269ft 477kts
23-Dec-17 23:33 33.359662 -117.707018 136 20490ft 457kts
23-Dec-17 23:34 33.272383 -117.601174 137 17960ft 435kts
23-Dec-17 23:35 33.177589 -117.517601 147 15393ft 415kts
23-Dec-17 23:36 33.084758 -117.439849 145 12879ft 399kts
23-Dec-17 23:37 32.998704 -117.368019 145 11734ft 348kts
23-Dec-17 23:38 32.925663 -117.306656 145 11093ft 294kts
23-Dec-17 23:39 32.860626 -117.252524 145 9297ft 275kts
23-Dec-17 23:40 32.806220 -117.192874 105 7916ft 266kts
23-Dec-17 23:41 32.788883 -117.109214 105 6675ft 257kts
23-Dec-17 23:42 32.766800 -117.031389 109 5979ft 227kts
23-Dec-17 23:43 32.748072 -116.961447 106 5077ft 220kts
23-Dec-17 23:44 32.730100 -116.892398 106 4994ft 219kts
23-Dec-17 23:45 32.710292 -116.824189 131 4971ft 218kts
23-Dec-17 23:46 32.664068 -116.840681 257 5012ft 218kts
23-Dec-17 23:47 32.658881 -116.911722 261 4999ft 213kts
23-Dec-17 23:48 32.672215 -116.975542 301 4198ft 205kts
23-Dec-17 23:49 32.695940 -117.034254 286 3472ft 193kts
23-Dec-17 23:50 32.710591 -117.094964 286 2483ft 166kts
23-Dec-17 23:51 32.722515 -117.143920 286 1310ft 148kts
23-Dec-17 23:52 32.733774 -117.190423 285 29ft 124kts
23-Dec-17 23:53 32.736827 -117.204152 246 29ft 0kts
23-Dec-17 23:54 32.735092 -117.200239 106 29ft 16kts
23-Dec-17 23:55 32.734049 -117.199823 223 29ft 7kts
23-Dec-17 23:56 32.733796 -117.200631 265 29ft 0kts

Navigation Log

Ident Type
Flight plan parsing failed, navigation log unavailable